Time;durP1;ratioP1;P1;durP2;ratioP2;P2;SDS_P1;SDS_P2;PMS_P1;PMS_P2;Temp;Humidity;BMP_temperature;BMP_pressure;BME280_temperature;BME280_humidity;BME280_pressure;Samples;Min_cycle;Max_cycle;Signal;HPM_P1;HPM_P2
2023/05/25 00:01:38;;;;;;;;;9.00;7.00;;;;;17.72;nan;101499.81;6137291;23;45300;-83
2023/05/25 00:04:03;;;;;;;;;10.00;9.00;;;;;17.66;nan;101489.97;6162819;23;45058;-83
2023/05/25 00:06:40;;;;;;;;;9.33;9.33;;;;;17.75;nan;101484.56;6160001;23;45575;-84
2023/05/25 00:09:06;;;;;;;;;8.67;8.67;;;;;17.67;nan;101491.75;6134189;23;45837;-84
2023/05/25 00:11:31;;;;;;;;;11.00;9.33;;;;;17.65;nan;101484.59;6132757;23;45613;-84
2023/05/25 00:13:56;;;;;;;;;9.00;8.67;;;;;17.59;nan;101482.81;6134240;23;45376;-84
2023/05/25 00:16:22;;;;;;;;;9.67;9.00;;;;;17.69;nan;101481.88;6162018;23;48575;-84
2023/05/25 00:18:47;;;;;;;;;11.33;11.00;;;;;17.68;nan;101479.22;6162184;23;45458;-83
2023/05/25 00:21:14;;;;;;;;;9.67;9.67;;;;;17.68;nan;101492.66;6162850;22;45455;-83
2023/05/25 00:23:40;;;;;;;;;12.00;10.33;;;;;17.68;nan;101498.94;6135730;23;45536;-84
2023/05/25 00:29:28;;;;;;;;;7.67;7.67;;;;;17.64;nan;101489.06;6160976;23;45458;-84
2023/05/25 00:31:53;;;;;;;;;15.00;15.00;;;;;17.59;nan;101486.41;6135882;23;45395;-84
2023/05/25 00:34:19;;;;;;;;;11.33;11.33;;;;;17.55;nan;101479.25;6137329;23;45483;-83
2023/05/25 00:36:47;;;;;;;;;16.67;12.33;;;;;17.54;nan;101476.56;6135621;23;46803;-84
2023/05/25 00:39:14;;;;;;;;;9.67;8.00;;;;;17.55;nan;101489.09;6134743;23;44972;-84
2023/05/25 00:41:43;;;;;;;;;13.00;12.00;;;;;17.49;nan;101483.72;6134381;23;45423;-85
2023/05/25 00:44:08;;;;;;;;;12.00;9.00;;;;;17.40;nan;101490.91;6162688;23;45601;-83
2023/05/25 00:46:36;;;;;;;;;11.33;10.00;;;;;17.36;nan;101481.06;6133973;23;46667;-83
2023/05/25 00:49:01;;;;;;;;;10.67;9.00;;;;;17.27;nan;101486.47;6161830;22;45253;-83
2023/05/25 00:51:31;;;;;;;;;11.00;11.00;;;;;17.27;nan;101488.25;6134314;23;45260;-85
2023/05/25 00:53:59;;;;;;;;;8.67;8.67;;;;;17.09;nan;101492.78;6161494;23;45422;-83
2023/05/25 00:56:30;;;;;;;;;11.33;11.00;;;;;17.10;nan;101491.84;6135791;23;48171;-84
2023/05/25 00:58:59;;;;;;;;;13.00;12.67;;;;;16.95;nan;101484.72;6135602;23;45396;-83
2023/05/25 01:01:27;;;;;;;;;13.33;12.33;;;;;16.90;nan;101485.59;6136331;23;45363;-84
2023/05/25 01:03:56;;;;;;;;;15.67;14.00;;;;;16.92;nan;101495.44;6136716;23;45611;-85
2023/05/25 01:06:22;;;;;;;;;15.67;11.00;;;;;16.85;nan;101495.47;6135055;23;47244;-85
2023/05/25 01:08:59;;;;;;;;;14.33;14.33;;;;;16.84;nan;101489.19;6162199;23;45351;-83
2023/05/25 01:11:30;;;;;;;;;15.33;12.33;;;;;16.73;nan;101478.41;6161902;23;45396;-83
2023/05/25 01:13:57;;;;;;;;;14.67;14.00;;;;;16.71;nan;101490.94;6135577;23;45433;-83
2023/05/25 01:16:24;;;;;;;;;15.67;15.00;;;;;16.64;nan;101472.13;6135951;23;48100;-83
2023/05/25 01:18:51;;;;;;;;;13.00;12.33;;;;;16.60;nan;101485.56;6163565;23;45427;-84
2023/05/25 01:21:36;;;;;;;;;12.00;12.00;;;;;16.68;nan;101479.28;6134064;22;45270;-85
2023/05/25 01:24:10;;;;;;;;;16.33;16.33;;;;;16.59;nan;101472.13;6163204;23;45386;-83
2023/05/25 01:26:45;;;;;;;;;14.00;14.00;;;;;16.56;nan;101483.78;6163187;23;46001;-84
2023/05/25 01:29:13;;;;;;;;;14.33;14.33;;;;;16.47;nan;101474.81;6162182;23;45249;-84
2023/05/25 01:32:16;;;;;;;;;15.00;12.33;;;;;16.54;nan;101488.25;6162012;23;45277;-85
2023/05/25 01:34:42;;;;;;;;;17.33;14.33;;;;;16.35;nan;101487.31;6136289;23;45305;-83
2023/05/25 01:37:08;;;;;;;;;16.00;14.00;;;;;16.29;nan;101487.28;6163285;22;46069;-83
2023/05/25 01:39:33;;;;;;;;;17.67;15.33;;;;;16.24;nan;101483.72;6136697;22;45674;-83
2023/05/25 01:42:05;;;;;;;;;17.33;15.33;;;;;16.16;nan;101493.53;6162187;22;45319;-84
2023/05/25 01:44:31;;;;;;;;;13.33;12.00;;;;;16.15;nan;101492.63;6134772;23;45278;-84
2023/05/25 01:47:06;;;;;;;;;17.00;16.00;;;;;16.18;nan;101484.59;6133467;22;46976;-84
2023/05/25 01:49:53;;;;;;;;;19.00;14.33;;;;;16.24;nan;101494.44;6160976;23;44861;-84
2023/05/25 01:52:22;;;;;;;;;18.33;16.00;;;;;16.17;nan;101498.00;6137601;22;45329;-84
2023/05/25 01:54:52;;;;;;;;;14.33;14.33;;;;;16.14;nan;101498.88;6137396;23;45314;-84
2023/05/25 01:57:19;;;;;;;;;16.00;14.33;;;;;16.09;nan;101508.69;6163100;23;46506;-85
2023/05/25 01:59:46;;;;;;;;;13.67;13.00;;;;;16.09;nan;101505.13;6134279;23;45541;-84
2023/05/25 02:02:18;;;;;;;;;15.67;15.00;;;;;16.11;nan;101504.22;6161717;22;45452;-85
2023/05/25 02:04:44;;;;;;;;;14.00;14.00;;;;;16.02;nan;101493.47;6161765;23;45620;-85
2023/05/25 02:07:10;;;;;;;;;17.67;15.33;;;;;15.94;nan;101497.94;6104300;23;46651;-84
2023/05/25 02:09:36;;;;;;;;;14.00;14.00;;;;;15.92;nan;101505.06;6105322;23;45413;-85
2023/05/25 02:12:01;;;;;;;;;16.33;14.00;;;;;15.83;nan;101496.97;6105864;23;45627;-85
2023/05/25 02:14:26;;;;;;;;;16.00;15.00;;;;;15.86;nan;101494.31;6132236;22;45454;-84
2023/05/25 02:16:52;;;;;;;;;15.33;13.67;;;;;15.83;nan;101487.13;6105953;23;46772;-85
2023/05/25 02:19:17;;;;;;;;;16.67;14.33;;;;;15.87;nan;101496.09;6106163;23;45890;-85
2023/05/25 02:21:43;;;;;;;;;16.33;13.33;;;;;15.87;nan;101498.78;6134572;22;45463;-85
2023/05/25 02:24:09;;;;;;;;;14.33;13.33;;;;;15.82;nan;101487.16;6134440;22;45781;-85
2023/05/25 02:26:36;;;;;;;;;15.33;13.33;;;;;15.76;nan;101502.31;6131833;23;46198;-83
2023/05/25 02:29:04;;;;;;;;;13.00;13.00;;;;;15.78;nan;101505.00;6132605;23;45242;-83
2023/05/25 02:31:30;;;;;;;;;14.33;13.33;;;;;15.68;nan;101508.50;6133293;23;45473;-83
2023/05/25 02:33:56;;;;;;;;;14.67;14.67;;;;;15.65;nan;101514.72;6132033;23;45316;-83
2023/05/25 02:36:21;;;;;;;;;14.00;14.00;;;;;15.61;nan;101520.94;6132525;22;45513;-83
2023/05/25 02:38:48;;;;;;;;;17.00;14.00;;;;;15.56;nan;101520.94;6132643;23;45387;-83
2023/05/25 02:41:25;;;;;;;;;13.00;13.00;;;;;15.64;nan;101525.47;6130232;22;45455;-84
2023/05/25 02:43:50;;;;;;;;;17.33;16.00;;;;;15.49;nan;101531.59;6105756;23;45528;-84
2023/05/25 02:46:16;;;;;;;;;16.00;14.00;;;;;15.48;nan;101521.78;6131600;23;45299;-84
2023/05/25 02:48:42;;;;;;;;;14.00;13.00;;;;;15.46;nan;101534.28;6105278;23;45266;-83
2023/05/25 02:51:07;;;;;;;;;15.00;14.00;;;;;15.38;nan;101520.81;6132616;23;45336;-84
2023/05/25 02:53:33;;;;;;;;;15.00;15.00;;;;;15.45;nan;101521.75;6133734;23;44696;-84
2023/05/25 02:55:59;;;;;;;;;15.67;13.67;;;;;15.47;nan;101520.91;6107517;23;46827;-84
2023/05/25 02:58:24;;;;;;;;;16.00;13.00;;;;;15.54;nan;101532.53;6107796;23;45409;-84
2023/05/25 03:00:50;;;;;;;;;12.33;12.00;;;;;15.57;nan;101527.19;6132402;23;45491;-83
2023/05/25 03:03:15;;;;;;;;;13.67;11.33;;;;;15.59;nan;101525.41;6134999;23;45447;-84
2023/05/25 03:05:41;;;;;;;;;14.33;14.33;;;;;15.70;nan;101537.09;6144007;23;45125;-83
2023/05/25 03:08:06;;;;;;;;;15.33;13.33;;;;;15.71;nan;101541.56;6136932;23;45538;-83
2023/05/25 03:10:32;;;;;;;;;14.33;14.33;;;;;15.69;nan;101548.69;6137262;23;45419;-83
2023/05/25 03:12:57;;;;;;;;;15.33;13.00;;;;;15.60;nan;101538.81;6136475;23;45487;-85
2023/05/25 03:15:22;;;;;;;;;14.00;14.00;;;;;15.60;nan;101543.31;6137623;23;47419;-85
2023/05/25 03:17:49;;;;;;;;;21.00;16.00;;;;;15.57;nan;101536.16;6164953;23;45730;-84
2023/05/25 03:20:15;;;;;;;;;20.00;15.67;;;;;15.57;nan;101537.91;6164414;22;45273;-84
2023/05/25 03:22:42;;;;;;;;;12.33;10.33;;;;;15.53;nan;101534.34;6163337;23;45385;-84
2023/05/25 03:25:11;;;;;;;;;14.00;12.00;;;;;15.53;nan;101547.75;6136462;22;47576;-84
2023/05/25 03:27:36;;;;;;;;;13.67;12.67;;;;;15.44;nan;101544.97;6135488;23;45368;-84
2023/05/25 03:30:02;;;;;;;;;13.00;13.00;;;;;15.36;nan;101539.56;6134569;23;45308;-84
2023/05/25 03:32:27;;;;;;;;;14.00;12.00;;;;;15.32;nan;101559.19;6135661;23;45440;-84
2023/05/25 03:34:53;;;;;;;;;11.67;11.67;;;;;15.26;nan;101543.06;6162680;22;45396;-84
2023/05/25 03:37:18;;;;;;;;;20.67;15.33;;;;;15.25;nan;101560.03;6160809;22;45419;-85
2023/05/25 03:39:44;;;;;;;;;12.00;12.00;;;;;15.22;nan;101560.00;6163611;23;45752;-83
2023/05/25 03:42:09;;;;;;;;;12.00;12.00;;;;;15.19;nan;101557.31;6138182;23;45530;-84
2023/05/25 03:44:35;;;;;;;;;12.67;12.67;;;;;15.17;nan;101565.34;6163854;23;45277;-83
2023/05/25 03:47:00;;;;;;;;;11.67;11.67;;;;;15.05;nan;101558.94;6137562;23;45374;-84
2023/05/25 03:49:26;;;;;;;;;14.67;13.33;;;;;15.07;nan;101568.81;6162986;23;45336;-84
2023/05/25 03:51:52;;;;;;;;;15.67;13.33;;;;;14.95;nan;101552.63;6138372;23;45377;-83
2023/05/25 03:54:18;;;;;;;;;14.33;10.67;;;;;15.00;nan;101573.19;6139141;23;47805;-86
2023/05/25 03:56:43;;;;;;;;;13.33;13.33;;;;;15.00;nan;101577.66;6165568;23;45641;-84
2023/05/25 03:59:09;;;;;;;;;13.00;11.33;;;;;14.92;nan;101569.56;6138230;23;45367;-84
2023/05/25 04:01:37;;;;;;;;;12.00;12.00;;;;;14.96;nan;101575.84;6138761;23;45875;-84
2023/05/25 04:04:03;;;;;;;;;14.33;14.33;;;;;14.82;nan;101570.34;6136706;23;48135;-83
2023/05/25 04:06:28;;;;;;;;;16.33;14.33;;;;;14.87;nan;101579.34;6152252;23;45727;-84
2023/05/25 04:08:54;;;;;;;;;12.67;12.33;;;;;14.89;nan;101574.00;6163470;23;44882;-84
2023/05/25 04:11:21;;;;;;;;;15.00;14.00;;;;;14.84;nan;101560.56;6164547;23;44724;-84
2023/05/25 04:13:46;;;;;;;;;15.33;11.33;;;;;14.71;nan;101558.66;6163400;23;45283;-83
2023/05/25 04:16:12;;;;;;;;;18.33;12.33;;;;;14.86;nan;101574.84;6163809;23;45363;-84
2023/05/25 04:18:37;;;;;;;;;17.33;14.00;;;;;14.90;nan;101563.28;6165414;22;45224;-85
2023/05/25 04:21:03;;;;;;;;;16.67;15.00;;;;;14.91;nan;101567.78;6163685;23;45287;-84
2023/05/25 04:23:28;;;;;;;;;14.67;12.33;;;;;14.92;nan;101569.56;6163192;22;47294;-84
2023/05/25 04:26:00;;;;;;;;;17.33;17.33;;;;;15.04;nan;101567.88;6165298;22;45273;-84
2023/05/25 04:28:27;;;;;;;;;13.00;11.33;;;;;14.97;nan;101570.50;6166228;22;45281;-84
2023/05/25 04:30:55;;;;;;;;;17.67;14.33;;;;;14.94;nan;101573.16;6164991;23;45248;-84
2023/05/25 04:33:21;;;;;;;;;11.00;9.00;;;;;14.87;nan;101565.97;6163618;23;47396;-84
2023/05/25 04:35:49;;;;;;;;;9.67;7.67;;;;;14.83;nan;101560.56;6163865;23;45717;-84
2023/05/25 04:38:16;;;;;;;;;13.00;11.67;;;;;14.90;nan;101576.69;6163731;22;45234;-83
2023/05/25 04:40:42;;;;;;;;;9.00;7.00;;;;;14.85;nan;101572.19;6164554;23;45347;-83
2023/05/25 04:43:08;;;;;;;;;17.33;16.00;;;;;14.83;nan;101568.59;6162774;23;45321;-83
2023/05/25 04:45:34;;;;;;;;;15.67;15.00;;;;;14.84;nan;101578.41;6164668;23;45383;-83
2023/05/25 04:48:01;;;;;;;;;16.00;13.33;;;;;15.08;nan;101581.31;6165323;23;46029;-84
2023/05/25 04:50:27;;;;;;;;;12.00;11.67;;;;;14.95;nan;101574.97;6163791;23;45493;-84
2023/05/25 04:52:53;;;;;;;;;16.00;15.67;;;;;15.06;nan;101579.50;6166073;23;45427;-84
2023/05/25 04:55:18;;;;;;;;;19.67;15.67;;;;;15.14;nan;101589.41;6164536;22;44803;-84
2023/05/25 04:57:44;;;;;;;;;16.67;14.67;;;;;15.21;nan;101582.34;6161360;23;45445;-84
2023/05/25 05:00:11;;;;;;;;;14.33;13.33;;;;;15.31;nan;101586.88;6164214;22;45294;-84
2023/05/25 05:02:40;;;;;;;;;16.33;13.33;;;;;15.42;nan;101586.97;6163213;23;47258;-83
2023/05/25 05:05:06;;;;;;;;;12.67;10.00;;;;;15.50;nan;101587.03;6164667;22;45317;-84
2023/05/25 05:07:31;;;;;;;;;15.67;15.67;;;;;15.52;nan;101587.94;6134449;23;45464;-84
2023/05/25 05:09:57;;;;;;;;;16.67;15.33;;;;;15.57;nan;101599.56;6108856;23;45301;-85
2023/05/25 05:12:22;;;;;;;;;15.33;15.33;;;;;15.66;nan;101594.28;6109712;23;46832;-85
2023/05/25 05:14:48;;;;;;;;;20.33;16.33;;;;;15.66;nan;101586.25;6134195;23;45418;-85
2023/05/25 05:17:14;;;;;;;;;15.33;13.00;;;;;15.76;nan;101608.69;6109849;23;45388;-85
2023/05/25 05:19:39;;;;;;;;;21.00;18.00;;;;;15.80;nan;101599.78;6135228;23;44805;-85
2023/05/25 05:22:04;;;;;;;;;14.00;13.33;;;;;15.92;nan;101605.22;6135397;23;45536;-84
2023/05/25 05:24:30;;;;;;;;;18.33;14.00;;;;;15.99;nan;101607.03;6110179;23;45270;-83
2023/05/25 05:26:55;;;;;;;;;19.33;18.33;;;;;16.07;nan;101603.50;6109004;23;45349;-84
2023/05/25 05:29:21;;;;;;;;;21.33;16.00;;;;;16.11;nan;101611.56;6109236;23;44862;-84
2023/05/25 05:31:46;;;;;;;;;16.67;16.67;;;;;16.14;nan;101611.59;6138019;23;45339;-84
2023/05/25 05:34:11;;;;;;;;;19.33;14.33;;;;;16.20;nan;101617.00;6112304;22;45231;-85
2023/05/25 05:36:37;;;;;;;;;18.33;16.00;;;;;16.27;nan;101622.41;6138065;23;45269;-84
2023/05/25 05:39:08;;;;;;;;;17.67;17.00;;;;;16.45;nan;101633.22;6109475;23;44779;-84
2023/05/25 05:41:33;;;;;;;;;16.00;16.00;;;;;16.35;nan;101631.38;6135721;22;45351;-83
2023/05/25 05:44:00;;;;;;;;;17.00;16.00;;;;;16.39;nan;101622.44;6108629;23;45479;-86
2023/05/25 05:46:25;;;;;;;;;16.33;14.33;;;;;16.49;nan;101618.91;6110516;23;45311;-84
2023/05/25 05:48:51;;;;;;;;;14.00;14.00;;;;;16.57;nan;101613.56;6111642;23;45355;-85
2023/05/25 05:51:16;;;;;;;;;18.00;18.00;;;;;16.67;nan;101626.13;6109935;23;46886;-85
2023/05/25 05:53:42;;;;;;;;;18.00;16.67;;;;;16.71;nan;101608.25;6110122;23;45333;-84
2023/05/25 05:56:16;;;;;;;;;18.33;15.33;;;;;16.81;nan;101623.53;6110290;23;45390;-84
2023/05/25 05:58:41;;;;;;;;;15.67;14.00;;;;;16.74;nan;101635.09;6111573;23;45273;-85
2023/05/25 06:01:07;;;;;;;;;15.67;15.67;;;;;16.68;nan;101635.06;6137833;23;45313;-84
2023/05/25 06:03:33;;;;;;;;;18.67;15.00;;;;;16.62;nan;101635.06;6136648;22;45142;-84
2023/05/25 06:06:01;;;;;;;;;14.00;14.00;;;;;16.66;nan;101639.53;6147670;23;45330;-84
2023/05/25 06:08:26;;;;;;;;;20.33;15.67;;;;;16.60;nan;101635.03;6139977;23;45351;-85
2023/05/25 06:10:52;;;;;;;;;12.00;12.00;;;;;16.47;nan;101638.59;6164234;23;45298;-85
2023/05/25 06:13:17;;;;;;;;;12.33;11.33;;;;;16.41;nan;101642.13;6137185;23;45727;-84
2023/05/25 06:15:44;;;;;;;;;14.33;12.00;;;;;16.53;nan;101655.63;6137812;23;45295;-84
2023/05/25 06:18:10;;;;;;;;;12.33;12.00;;;;;16.45;nan;101638.56;6137469;23;45661;-85
2023/05/25 06:20:59;;;;;;;;;14.67;14.33;;;;;16.67;nan;101652.09;6167087;23;46237;-86
2023/05/25 06:23:26;;;;;;;;;18.67;15.00;;;;;16.56;nan;101634.16;6140855;23;45660;-84
2023/05/25 06:26:04;;;;;;;;;15.67;14.00;;;;;16.69;nan;101647.63;6138574;23;44726;-85
2023/05/25 06:32:25;;;;;;;;;18.67;16.67;;;;;16.90;nan;101631.59;6016508;23;45864;-84
2023/05/25 06:35:20;;;;;;;;;13.33;13.33;;;;;17.18;nan;101654.03;5991439;23;45840;-85
2023/05/25 06:38:56;;;;;;;;;16.00;14.00;;;;;17.31;nan;101665.72;5984706;23;45411;-85
2023/05/25 06:59:21;;;;;;;;;;;;;;;;;;;;;
2023/05/25 07:02:46;;;;;;;;;18.00;18.00;;;;;17.71;nan;101654.94;5648391;25;72788;-86
2023/05/25 07:19:20;;;;;;;;;11.33;11.00;;;;;18.06;nan;101651.34;6128224;22;45801;-86
2023/05/25 07:21:55;;;;;;;;;16.67;16.67;;;;;18.16;nan;101654.94;6170758;23;45290;-85
2023/05/25 07:24:26;;;;;;;;;16.33;15.00;;;;;18.19;nan;101647.72;6143103;23;47144;-87
2023/05/25 07:30:09;;;;;;;;;11.67;11.33;;;;;18.41;nan;101650.34;6053802;23;44994;-84
2023/05/25 07:33:28;;;;;;;;;;;;;;;;;;;;;
2023/05/25 07:36:12;;;;;;;;;14.33;13.33;;;;;18.95;nan;101663.59;6049271;23;75224;-86
2023/05/25 07:39:39;;;;;;;;;12.67;12.67;;;;;18.78;nan;101629.53;6044164;23;44831;-85
2023/05/25 07:52:43;;;;;;;;;11.00;11.00;;;;;18.94;nan;101645.63;6116966;22;46599;-85
2023/05/25 07:55:22;;;;;;;;;14.00;12.67;;;;;18.85;nan;101643.88;6143207;23;45370;-84
2023/05/25 07:58:00;;;;;;;;;4.00;1.00;;;;;18.93;nan;101658.22;6170437;23;45596;-86
2023/05/25 08:07:38;;;;;;;;;12.33;11.33;;;;;19.07;nan;101632.97;6005830;23;45638;-87
2023/05/25 09:01:33;;;;;;;;;8.67;6.67;;;;;19.94;nan;101678.13;6150327;22;45414;-84
2023/05/25 09:04:32;;;;;;;;;5.67;4.67;;;;;19.98;nan;101676.31;6144823;23;44885;-86
2023/05/25 09:07:02;;;;;;;;;6.33;6.33;;;;;19.90;nan;101670.97;6141861;23;45109;-86
2023/05/25 09:44:12;;;;;;;;;7.33;5.33;;;;;20.39;nan;101646.13;6090425;22;46670;31
2023/05/25 09:46:38;;;;;;;;;4.00;4.00;;;;;19.96;nan;101640.34;6075835;23;45369;-84
2023/05/25 09:49:27;;;;;;;;;7.00;7.00;;;;;20.14;nan;101631.13;6079380;23;45449;-86
2023/05/25 10:07:05;;;;;;;;;10.67;8.33;;;;;20.67;nan;101639.53;6171215;22;45341;-84
2023/05/25 10:13:48;;;;;;;;;;;;;;;;;;;;;
2023/05/25 11:32:30;;;;;;;;;8.00;7.33;;;;;21.42;nan;101602.31;6165699;23;44985;-84
2023/05/25 11:34:58;;;;;;;;;7.00;7.00;;;;;21.32;nan;101596.16;6170116;22;45094;-85
2023/05/25 11:37:27;;;;;;;;;6.33;6.33;;;;;21.47;nan;101608.56;6168535;23;45356;-85
2023/05/25 13:16:17;;;;;;;;;6.00;6.00;;;;;22.49;nan;101584.00;6138575;23;45408;-85
2023/05/25 13:19:09;;;;;;;;;4.67;4.67;;;;;22.57;nan;101601.00;6135891;23;45286;-86
2023/05/25 13:21:42;;;;;;;;;6.00;6.00;;;;;22.60;nan;101593.72;6110392;23;45687;-85
2023/05/25 13:44:23;;;;;;;;;11.00;11.00;;;;;23.63;nan;101615.69;6169282;22;45252;-85
2023/05/25 13:47:07;;;;;;;;;9.00;9.00;;;;;25.29;nan;101584.50;6019115;23;47017;-85
2023/05/25 13:49:44;;;;;;;;;9.00;9.00;;;;;26.81;nan;101536.19;5997769;23;45481;-85
2023/05/25 13:52:45;;;;;;;;;;;;;;;;;;;;;
2023/05/25 13:55:27;;;;;;;;;8.33;7.67;;;;;29.82;nan;101589.66;6019335;23;64678;-84
2023/05/25 13:57:56;;;;;;;;;10.33;9.33;;;;;30.72;nan;101561.78;6018931;23;47252;-84
2023/05/25 14:01:05;;;;;;;;;9.33;9.33;;;;;31.65;nan;101571.00;5996866;23;45402;-84
2023/05/25 14:15:31;;;;;;;;;;;;;;;;;;;;;
2023/05/25 14:25:41;;;;;;;;;10.00;8.00;;;;;35.98;nan;101558.91;5820560;24;45923;-85
2023/05/25 14:28:15;;;;;;;;;3.00;3.00;;;;;36.11;nan;101591.16;5806564;24;45336;-85
2023/05/25 14:30:44;;;;;;;;;10.00;8.67;;;;;36.52;nan;101561.97;5802680;24;45486;-84
2023/05/25 14:33:24;;;;;;;;;6.33;6.33;;;;;36.97;nan;101567.47;5779233;24;45166;-85
2023/05/25 14:36:10;;;;;;;;;7.33;7.33;;;;;37.22;nan;101549.63;5801389;24;47224;-85
2023/05/25 14:42:34;;;;;;;;;;;;;;;;;;;;;
2023/05/25 14:45:45;;;;;;;;;10.00;10.00;;;;;37.72;nan;101551.81;5943310;23;65140;-85
2023/05/25 14:48:52;;;;;;;;;;;;;;;;;;;;;
2023/05/25 14:52:01;;;;;;;;;8.33;7.00;;;;;38.06;nan;101571.94;5962002;23;72100;-85
2023/05/25 14:58:40;;;;;;;;;7.00;7.00;;;;;37.78;nan;101563.25;5937870;24;45408;-84
2023/05/25 15:05:04;;;;;;;;;;;;;;;;;;;;;
2023/05/25 15:07:59;;;;;;;;;6.00;6.00;;;;;37.47;nan;101559.50;5893722;24;67775;-86
2023/05/25 15:56:35;;;;;;;;;7.33;7.33;;;;;43.38;17.06;101539.63;5200817;22;24914303;-85
2023/05/25 15:59:21;;;;;;;;;11.67;11.00;;;;;43.38;16.57;101556.44;6212598;22;44799;-86
2023/05/25 16:02:07;;;;;;;;;14.67;11.67;;;;;43.06;17.81;101557.25;6135039;23;45375;-86
2023/05/25 16:04:43;;;;;;;;;12.33;12.33;;;;;43.35;17.60;101552.06;6145403;23;45464;-85
2023/05/25 16:10:31;;;;;;;;;12.33;12.33;;;;;43.56;16.25;101536.66;6173831;23;45128;-85
2023/05/25 16:13:28;;;;;;;;;;;;;;;;;;;;;
2023/05/25 16:16:20;;;;;;;;;12.00;12.00;;;;;44.08;16.92;101557.81;6175597;23;65313;-86
2023/05/25 16:26:22;;;;;;;;;12.00;12.00;;;;;43.10;18.11;101544.66;6188532;23;45231;-85
2023/05/25 16:36:37;;;;;;;;;17.00;16.33;;;;;42.34;18.09;101525.00;6329862;22;46479;-86
2023/05/25 16:39:04;;;;;;;;;14.67;13.67;;;;;41.54;17.53;101525.13;6327427;22;45335;-86
2023/05/25 16:41:30;;;;;;;;;20.00;17.00;;;;;41.27;18.94;101547.56;6326223;22;47207;-84
2023/05/25 16:44:04;;;;;;;;;14.67;14.67;;;;;40.91;18.78;101542.00;6353887;22;45230;-86
2023/05/25 16:46:29;;;;;;;;;17.00;16.00;;;;;39.78;19.57;101541.09;6327267;22;45267;-86
2023/05/25 16:49:01;;;;;;;;;15.00;15.00;;;;;37.94;20.24;101518.31;6326836;22;45316;-86
2023/05/25 16:51:27;;;;;;;;;21.00;17.33;;;;;35.78;21.79;101545.81;6325766;22;46677;-86
2023/05/25 16:54:04;;;;;;;;;14.33;14.33;;;;;33.54;23.64;101508.16;6325602;22;45306;-86
2023/05/25 16:56:30;;;;;;;;;18.67;17.67;;;;;31.75;26.26;101549.31;6352371;22;44750;-85
2023/05/25 16:58:59;;;;;;;;;18.00;15.33;;;;;30.60;26.33;101555.19;6324959;22;45582;-85
2023/05/25 17:01:24;;;;;;;;;17.00;16.67;;;;;29.70;28.81;101544.53;6326289;22;47820;-86
2023/05/25 17:03:50;;;;;;;;;17.00;17.00;;;;;29.08;29.03;101558.66;6351518;22;45345;-86
2023/05/25 17:06:19;;;;;;;;;17.67;16.67;;;;;28.41;30.75;101542.81;6324412;22;45412;-86
2023/05/25 17:08:50;;;;;;;;;15.67;15.67;;;;;27.91;30.56;101544.19;6352643;22;45360;-85
2023/05/25 17:11:15;;;;;;;;;18.00;16.00;;;;;27.41;30.65;101563.72;6325713;22;48157;-86
2023/05/25 17:13:41;;;;;;;;;17.67;17.67;;;;;27.03;31.92;101568.94;6353265;22;44802;-85
2023/05/25 17:16:06;;;;;;;;;17.33;17.33;;;;;26.62;33.46;101539.69;6325714;22;44788;-84
2023/05/25 17:18:32;;;;;;;;;21.33;20.00;;;;;26.30;32.68;101535.47;6324708;22;45710;-85
2023/05/25 17:20:58;;;;;;;;;16.33;16.33;;;;;26.01;33.27;101518.38;6326743;22;47519;-86
2023/05/25 17:23:23;;;;;;;;;28.33;26.00;;;;;25.90;35.37;101548.75;6354084;22;44925;-85
2023/05/25 17:25:49;;;;;;;;;21.67;21.00;;;;;25.79;35.00;101560.97;6325549;22;45391;-84
2023/05/25 17:28:18;;;;;;;;;21.33;21.33;;;;;25.62;35.29;101553.41;6355222;22;45308;-88
2023/05/25 17:30:47;;;;;;;;;21.33;20.67;;;;;25.24;35.60;101521.13;6326806;22;47670;-87
2023/05/25 17:33:12;;;;;;;;;17.67;17.67;;;;;25.11;36.30;101536.97;6326246;22;45325;-85
2023/05/25 17:35:41;;;;;;;;;21.33;20.00;;;;;24.98;37.31;101548.31;6353621;22;44826;-85
2023/05/25 17:41:29;;;;;;;;;22.67;21.67;;;;;24.51;37.63;101536.19;6352229;22;45309;-85
2023/05/25 17:43:58;;;;;;;;;19.67;19.00;;;;;24.41;37.00;101518.34;6352951;22;45462;-85
2023/05/25 17:46:23;;;;;;;;;24.00;21.67;;;;;24.52;37.37;101554.31;6323679;22;44865;-86
2023/05/25 17:48:49;;;;;;;;;20.67;20.67;;;;;24.32;38.26;101516.81;6325064;22;45643;-85
2023/05/25 17:51:17;;;;;;;;;23.67;23.00;;;;;24.44;38.79;101553.63;6322563;22;46981;-86
2023/05/25 17:53:43;;;;;;;;;19.67;19.00;;;;;24.26;37.82;101535.13;6350056;22;45274;-85
2023/05/25 17:56:12;;;;;;;;;20.67;19.67;;;;;24.46;38.92;101570.78;6318714;22;45740;-85
2023/05/25 17:58:37;;;;;;;;;23.67;21.33;;;;;24.21;38.31;101547.97;6350635;22;45337;-85
2023/05/25 18:01:03;;;;;;;;;25.33;24.33;;;;;24.26;38.79;101579.53;6322235;22;46719;-85
2023/05/25 18:03:28;;;;;;;;;27.33;27.00;;;;;24.11;39.01;101577.25;6323056;22;45387;-85
2023/05/25 18:05:54;;;;;;;;;27.00;26.67;;;;;24.06;38.75;101588.28;6322934;22;44688;-85
2023/05/25 18:08:20;;;;;;;;;22.67;22.00;;;;;24.07;38.86;101578.28;6352601;22;45599;-85
2023/05/25 18:10:46;;;;;;;;;26.33;24.33;;;;;23.86;39.35;101568.94;6350092;22;46175;-85
2023/05/25 18:13:11;;;;;;;;;29.67;28.67;;;;;23.97;39.34;101593.94;6321791;22;45347;-84
2023/05/25 18:15:37;;;;;;;;;23.00;21.00;;;;;23.86;39.95;101579.78;6350616;22;45407;-84
2023/05/25 18:18:05;;;;;;;;;26.00;24.33;;;;;23.73;40.75;101569.25;6322789;22;45372;-84
2023/05/25 18:20:33;;;;;;;;;23.33;21.67;;;;;23.66;39.94;101578.47;6351732;22;45209;-86
2023/05/25 18:22:58;;;;;;;;;26.33;24.00;;;;;23.46;40.38;101564.53;6352283;22;45254;-85
2023/05/25 18:25:26;;;;;;;;;25.00;21.67;;;;;23.40;40.68;101575.56;6351910;22;45601;-86
2023/05/25 18:27:52;;;;;;;;;20.67;20.67;;;;;23.26;40.61;101560.50;6321990;22;45350;-85
2023/05/25 18:30:20;;;;;;;;;20.67;20.67;;;;;23.27;40.48;101554.16;6321649;22;47201;-85
2023/05/25 18:32:46;;;;;;;;;22.33;20.00;;;;;23.47;40.93;101593.47;6320248;22;45358;-86
2023/05/25 18:35:11;;;;;;;;;23.00;22.00;;;;;23.40;41.24;101587.31;6320933;22;45346;-86
2023/05/25 18:37:36;;;;;;;;;22.67;19.33;;;;;23.15;41.26;101559.91;6345969;22;45258;-85
2023/05/25 18:40:02;;;;;;;;;18.67;18.67;;;;;23.00;40.46;101538.53;6346520;22;45249;-86
2023/05/25 18:42:28;;;;;;;;;18.33;18.33;;;;;23.12;40.88;101578.97;6344967;22;45343;-85
2023/05/25 18:44:53;;;;;;;;;17.33;16.00;;;;;23.12;41.01;101596.13;6347247;22;45268;-86
2023/05/25 18:47:18;;;;;;;;;17.67;17.33;;;;;23.06;40.90;101599.00;6348900;22;44706;-86
2023/05/25 18:49:47;;;;;;;;;19.00;17.33;;;;;23.08;41.93;101593.53;6322363;22;48020;-84
2023/05/25 18:52:13;;;;;;;;;19.00;16.00;;;;;22.89;42.20;101588.53;6349629;22;45439;-86
2023/05/25 18:54:38;;;;;;;;;21.33;17.67;;;;;22.83;41.37;101602.25;6321536;22;45403;-85
2023/05/25 18:57:05;;;;;;;;;19.00;17.00;;;;;22.77;42.06;101603.25;6349488;22;45359;-85
2023/05/25 18:59:32;;;;;;;;;16.00;14.33;;;;;22.75;41.57;101590.69;6351120;22;46730;-85
2023/05/25 19:01:59;;;;;;;;;13.00;13.00;;;;;22.64;41.88;101595.44;6324176;22;45572;-85
2023/05/25 19:04:24;;;;;;;;;17.67;16.67;;;;;22.46;42.00;101586.81;6349682;22;45370;-85
2023/05/25 19:06:50;;;;;;;;;14.33;13.00;;;;;22.46;42.10;101596.72;6323911;22;45361;-85
2023/05/25 19:09:16;;;;;;;;;16.00;16.00;;;;;22.44;42.04;101609.44;6349690;22;45354;-85
2023/05/25 19:11:41;;;;;;;;;14.00;14.00;;;;;22.35;41.99;101592.44;6345343;22;45434;-85
2023/05/25 19:14:08;;;;;;;;;11.00;10.00;;;;;22.34;43.11;101614.19;6348696;22;45684;-85
2023/05/25 19:16:34;;;;;;;;;17.33;14.00;;;;;22.22;42.51;101606.25;6319924;22;45664;-85
2023/05/25 19:18:59;;;;;;;;;14.67;14.67;;;;;22.17;42.95;101604.50;6349396;22;45929;-85
2023/05/25 19:21:25;;;;;;;;;12.33;12.33;;;;;22.06;42.88;101598.44;6347874;22;45628;-84
2023/05/25 19:23:52;;;;;;;;;13.33;12.33;;;;;22.11;42.79;101611.88;6347188;22;45302;-84
2023/05/25 19:26:18;;;;;;;;;16.33;15.67;;;;;21.98;43.47;101612.13;6348864;22;45358;-85